Time;durP1;ratioP1;P1;durP2;ratioP2;P2;SDS_P1;SDS_P2;PMS_P1;PMS_P2;Temp;Humidity;BMP_temperature;BMP_pressure;BME280_temperature;BME280_humidity;BME280_pressure;Samples;Min_cycle;Max_cycle;Signal;HPM_P1;HPM_P2
2023/06/20 00:02:10;;;;;;;15.02;14.13;;;;;;;19.94;91.48;99733.47;10505950;28;20081;-73
2023/06/20 00:07:11;;;;;;;14.85;13.85;;;;;;;19.89;91.55;99736.47;10506672;28;20067;-73
2023/06/20 00:12:13;;;;;;;13.57;12.68;;;;;;;19.82;91.89;99739.72;10508308;28;20562;-75
2023/06/20 00:17:15;;;;;;;13.45;12.55;;;;;;;19.74;91.31;99728.75;10471602;28;20143;-73
2023/06/20 00:22:16;;;;;;;13.88;13.00;;;;;;;19.76;92.76;99724.19;10505657;28;20047;-73
2023/06/20 00:27:18;;;;;;;14.95;13.80;;;;;;;19.71;93.33;99724.53;10505875;28;20056;-73
2023/06/20 00:32:20;;;;;;;14.68;13.73;;;;;;;19.82;93.09;99721.03;10487746;28;20413;-73
2023/06/20 00:37:22;;;;;;;14.82;14.02;;;;;;;19.72;93.81;99718.22;10504805;28;20076;-73
2023/06/20 00:42:24;;;;;;;15.07;14.10;;;;;;;19.45;95.14;99714.91;10487447;28;20055;-73
2023/06/20 00:47:27;;;;;;;15.02;14.02;;;;;;;19.44;96.08;99711.41;10505319;28;20072;-74
2023/06/20 00:52:29;;;;;;;14.52;13.63;;;;;;;19.22;97.22;99716.59;10504173;28;20042;-73
2023/06/20 00:57:30;;;;;;;15.10;14.10;;;;;;;19.20;96.64;99715.84;10485204;28;20139;-74
2023/06/20 01:02:32;;;;;;;14.07;12.95;;;;;;;19.25;97.03;99708.34;10502152;28;20045;-73
2023/06/20 01:07:44;;;;;;;14.13;13.23;;;;;;;19.13;97.84;99708.31;10484847;28;20516;-74
2023/06/20 01:12:56;;;;;;;14.10;13.27;;;;;;;19.20;97.59;99699.84;10503121;28;20060;-73
2023/06/20 01:18:08;;;;;;;14.50;13.50;;;;;;;19.21;97.23;99698.88;10502963;28;20040;-74
2023/06/20 01:23:23;;;;;;;15.57;14.57;;;;;;;18.90;99.46;99690.44;10502511;28;20068;-75
2023/06/20 01:29:01;;;;;;;15.10;14.20;;;;;;;18.73;100.00;99682.81;10468889;28;20079;-74
2023/06/20 01:34:08;;;;;;;15.95;14.93;;;;;;;18.77;100.00;99681.63;10501945;28;20056;-74
2023/06/20 01:39:20;;;;;;;14.68;13.77;;;;;;;18.70;100.00;99680.38;10484234;28;20044;-74
2023/06/20 01:44:22;;;;;;;14.43;13.52;;;;;;;18.87;100.00;99670.22;10483162;28;20068;-74
2023/06/20 01:49:25;;;;;;;14.00;13.18;;;;;;;18.88;99.37;99668.41;10502003;28;20421;-74
2023/06/20 01:54:29;;;;;;;14.63;13.73;;;;;;;18.66;100.00;99669.91;10503818;28;20040;-74
2023/06/20 01:59:32;;;;;;;15.05;13.95;;;;;;;18.64;100.00;99671.84;10503411;28;20043;-73
2023/06/20 02:04:35;;;;;;;14.82;13.93;;;;;;;18.47;100.00;99668.66;10483089;28;20155;-73
2023/06/20 02:09:44;;;;;;;15.93;14.93;;;;;;;18.59;100.00;99667.78;10483063;28;20136;-75
2023/06/20 02:14:47;;;;;;;;;;;;;;;18.49;100.00;99669.38;10483467;28;20044;-74
2023/06/20 02:19:49;;;;;;;14.40;13.40;;;;;;;18.26;100.00;99663.88;10482910;28;20437;-74
2023/06/20 02:24:52;;;;;;;14.75;13.85;;;;;;;18.18;100.00;99649.38;10499460;28;20098;-75
2023/06/20 02:29:56;;;;;;;14.40;13.52;;;;;;;18.08;100.00;99654.50;10501147;28;20036;-75
2023/06/20 02:34:59;;;;;;;14.48;13.48;;;;;;;18.05;100.00;99655.56;10501628;28;20071;-74
2023/06/20 02:40:01;;;;;;;15.45;14.45;;;;;;;18.40;100.00;99670.88;10481780;28;20075;-74
2023/06/20 02:45:03;;;;;;;15.30;14.35;;;;;;;18.25;100.00;99663.97;10481850;28;20502;-74
2023/06/20 02:50:18;;;;;;;14.93;14.02;;;;;;;18.22;100.00;99670.34;10500170;28;20079;-74
2023/06/20 02:55:20;;;;;;;15.65;14.60;;;;;;;17.97;100.00;99673.84;10481904;28;20079;-74
2023/06/20 03:00:23;;;;;;;15.82;14.65;;;;;;;18.21;100.00;99681.13;10482212;28;20068;-74
2023/06/20 03:05:30;;;;;;;16.27;14.77;;;;;;;18.34;100.00;99684.63;10466309;28;20056;-75
2023/06/20 03:10:32;;;;;;;16.88;15.77;;;;;;;17.98;100.00;99688.84;10501256;28;20063;-75
2023/06/20 03:15:35;;;;;;;16.60;15.55;;;;;;;17.75;100.00;99689.53;10484600;28;20049;-74
2023/06/20 03:20:37;;;;;;;17.23;16.13;;;;;;;17.96;100.00;99695.22;10481057;28;20041;-74
2023/06/20 03:25:39;;;;;;;16.95;15.95;;;;;;;17.87;100.00;99691.38;10482466;28;20071;-75
2023/06/20 03:30:41;;;;;;;16.77;15.68;;;;;;;17.88;100.00;99690.41;10481233;28;20044;-74
2023/06/20 03:35:44;;;;;;;16.92;15.70;;;;;;;18.14;100.00;99697.47;10481436;28;20098;-74
2023/06/20 03:40:49;;;;;;;16.98;15.77;;;;;;;18.22;100.00;99698.78;10487689;28;20044;-75
2023/06/20 03:45:51;;;;;;;17.77;16.52;;;;;;;18.58;100.00;99703.34;10490653;28;20046;-75
2023/06/20 03:50:53;;;;;;;17.58;16.30;;;;;;;18.79;100.00;99695.69;10489610;28;20089;-75
2023/06/20 03:55:55;;;;;;;17.50;16.27;;;;;;;19.03;100.00;99709.91;10488207;28;20583;-75
2023/06/20 04:00:58;;;;;;;17.20;15.82;;;;;;;19.04;99.45;99714.28;10489250;28;20043;-75
2023/06/20 04:06:01;;;;;;;16.55;15.43;;;;;;;19.01;100.00;99713.66;10488749;28;20075;-74
2023/06/20 04:11:03;;;;;;;15.85;14.85;;;;;;;19.04;100.00;99708.13;10505813;28;20040;-74
2023/06/20 04:16:05;;;;;;;16.05;14.90;;;;;;;19.18;100.00;99715.97;10488604;28;20072;-74
2023/06/20 04:21:07;;;;;;;15.77;14.77;;;;;;;19.17;100.00;99714.25;10507389;28;20048;-75
2023/06/20 04:26:09;;;;;;;15.85;14.75;;;;;;;19.14;100.00;99714.47;10488951;28;20529;-74
2023/06/20 04:31:11;;;;;;;13.88;12.98;;;;;;;19.33;100.00;99713.97;10488597;28;20151;-74
2023/06/20 04:36:13;;;;;;;14.35;13.52;;;;;;;19.75;97.54;99717.16;10506555;28;20041;-74
2023/06/20 04:41:18;;;;;;;14.18;13.38;;;;;;;20.15;93.66;99729.19;10487654;28;20044;-74
2023/06/20 04:46:20;;;;;;;14.38;13.18;;;;;;;20.64;89.41;99738.75;10487084;28;20048;-74
2023/06/20 04:51:22;;;;;;;11.60;10.98;;;;;;;20.76;88.32;99728.06;10504902;28;20041;-74
2023/06/20 04:56:27;;;;;;;11.57;10.87;;;;;;;21.07;82.72;99724.69;10505303;28;20044;-75
2023/06/20 05:01:29;;;;;;;12.23;11.52;;;;;;;21.22;84.19;99724.41;10497799;22;20496;-67
2023/06/20 05:06:31;;;;;;;10.77;9.95;;;;;;;21.86;77.26;99737.88;10500248;28;20047;-69
2023/06/20 05:11:32;;;;;;;10.55;9.85;;;;;;;22.11;76.59;99737.50;10483364;28;20580;-68
2023/06/20 05:16:34;;;;;;;11.75;11.05;;;;;;;22.31;74.76;99733.19;10501217;28;20052;-68
2023/06/20 05:21:36;;;;;;;11.13;10.40;;;;;;;22.27;77.06;99736.22;10501200;28;20076;-68
2023/06/20 05:26:38;;;;;;;10.70;10.10;;;;;;;22.21;77.44;99732.25;10501325;28;20115;-69
2023/06/20 05:31:43;;;;;;;9.90;9.40;;;;;;;22.25;75.02;99739.06;10500827;28;20045;-68
2023/06/20 05:36:46;;;;;;;9.87;9.17;;;;;;;22.51;71.23;99741.34;10500127;28;20040;-68
2023/06/20 05:41:48;;;;;;;9.73;9.13;;;;;;;22.45;72.45;99733.84;10500292;28;20040;-68
2023/06/20 05:46:50;;;;;;;10.25;9.35;;;;;;;22.27;75.66;99741.59;10500837;28;20044;-69
2023/06/20 05:51:54;;;;;;;10.30;9.60;;;;;;;22.30;73.81;99744.00;10500062;28;20154;-69
2023/06/20 05:56:56;;;;;;;10.15;9.45;;;;;;;22.33;74.21;99749.97;10500481;28;20044;-68
2023/06/20 06:01:58;;;;;;;11.20;10.40;;;;;;;22.35;74.34;99737.28;10499248;28;20072;-68
2023/06/20 06:06:59;;;;;;;9.98;9.27;;;;;;;22.34;73.15;99735.59;10499621;28;20116;-69
2023/06/20 06:12:01;;;;;;;10.27;9.48;;;;;;;22.36;75.24;99744.34;10500140;28;20040;-68
2023/06/20 06:17:03;;;;;;;8.88;8.35;;;;;;;22.42;74.99;99743.81;10500047;28;20044;-69
2023/06/20 06:22:05;;;;;;;10.13;9.43;;;;;;;22.41;76.63;99738.59;10499536;28;20050;-69
2023/06/20 06:27:07;;;;;;;9.60;8.98;;;;;;;22.72;75.97;99735.97;10498274;28;20040;-69
2023/06/20 06:32:10;;;;;;;10.10;9.40;;;;;;;22.97;74.17;99732.00;10499986;28;20044;-69
2023/06/20 06:37:12;;;;;;;9.43;8.73;;;;;;;23.04;74.31;99734.00;10500037;28;20534;-68
2023/06/20 06:42:14;;;;;;;9.32;8.55;;;;;;;23.35;75.07;99736.63;10499486;28;20048;-69
2023/06/20 06:47:15;;;;;;;11.30;10.25;;;;;;;23.56;71.76;99744.59;10499844;28;20036;-68
2023/06/20 06:52:17;;;;;;;8.88;8.38;;;;;;;23.57;73.13;99748.97;10498645;28;20542;-68
2023/06/20 06:57:19;;;;;;;10.43;9.73;;;;;;;23.81;71.68;99756.63;10498693;28;20486;-68
2023/06/20 07:02:22;;;;;;;8.70;8.00;;;;;;;23.88;72.67;99750.56;10499092;28;20068;-68
2023/06/20 07:07:23;;;;;;;10.20;9.40;;;;;;;24.00;73.16;99750.44;10498426;28;20075;-68
2023/06/20 07:12:25;;;;;;;10.48;9.77;;;;;;;24.29;69.69;99761.16;10502022;28;20490;-68
2023/06/20 07:17:27;;;;;;;10.20;9.27;;;;;;;24.26;69.99;99759.63;10506452;28;20045;-67
2023/06/20 07:22:29;;;;;;;9.63;8.93;;;;;;;24.48;68.58;99755.81;10507394;28;20059;-68
2023/06/20 07:27:30;;;;;;;10.32;9.38;;;;;;;24.76;66.57;99763.94;10505652;28;20094;-68
2023/06/20 07:32:32;;;;;;;10.05;9.45;;;;;;;24.79;66.35;99766.31;10504918;28;20109;-68
2023/06/20 07:37:34;;;;;;;10.63;9.93;;;;;;;25.02;65.97;99767.66;10503709;28;20048;-69
2023/06/20 07:42:35;;;;;;;10.10;9.30;;;;;;;25.13;65.46;99766.66;10505059;28;20079;-68
2023/06/20 07:47:37;;;;;;;9.75;9.15;;;;;;;25.31;64.69;99761.31;10505203;28;20048;-68
2023/06/20 07:52:40;;;;;;;9.82;9.05;;;;;;;25.39;64.98;99764.09;10505090;28;20064;-68
2023/06/20 07:57:42;;;;;;;10.80;10.00;;;;;;;25.53;65.48;99773.50;10504681;28;20090;-68
2023/06/20 08:02:44;;;;;;;10.35;9.65;;;;;;;25.79;62.42;99781.75;10504470;28;20099;-69
2023/06/20 08:07:46;;;;;;;9.77;9.18;;;;;;;25.56;64.54;99794.75;10503970;28;20048;-69
2023/06/20 08:12:51;;;;;;;10.95;10.00;;;;;;;25.20;66.29;99812.63;10503791;28;20047;-68
2023/06/20 08:17:53;;;;;;;10.25;9.55;;;;;;;25.33;66.09;99811.31;10497545;28;20512;-68
2023/06/20 08:22:55;;;;;;;9.73;9.13;;;;;;;25.35;65.64;99816.53;10494564;28;20127;-69
2023/06/20 08:27:57;;;;;;;9.63;9.02;;;;;;;25.61;64.25;99805.91;10460143;28;20045;-68
2023/06/20 08:33:14;;;;;;;11.05;10.10;;;;;;;25.26;66.82;99812.03;10454780;28;20040;-68
2023/06/20 08:38:16;;;;;;;9.88;9.07;;;;;;;25.36;69.00;99807.44;10457093;28;20098;-70
2023/06/20 08:43:19;;;;;;;10.10;9.10;;;;;;;25.23;69.93;99815.00;10459549;28;20045;-69
2023/06/20 08:48:21;;;;;;;8.93;8.13;;;;;;;25.14;68.86;99808.69;10476864;28;20044;-69
2023/06/20 08:53:24;;;;;;;9.77;9.07;;;;;;;24.86;70.49;99802.38;10500772;28;20397;-69
2023/06/20 08:58:26;;;;;;;9.02;8.43;;;;;;;25.01;69.65;99819.72;10499586;28;20444;-68
2023/06/20 09:03:28;;;;;;;9.38;8.63;;;;;;;25.17;68.49;99825.38;10500424;28;20075;-69
2023/06/20 09:08:43;;;;;;;9.40;8.60;;;;;;;25.26;68.65;99837.09;10499581;28;20056;-69
2023/06/20 09:13:45;;;;;;;9.23;8.52;;;;;;;24.79;70.28;99818.25;10498378;28;20144;-69
2023/06/20 09:18:49;;;;;;;7.18;6.65;;;;;;;25.02;67.87;99825.97;10500095;28;20123;-69
2023/06/20 09:24:02;;;;;;;7.25;6.65;;;;;;;25.26;68.99;99839.78;10500060;28;20124;-69
2023/06/20 09:29:07;;;;;;;5.82;5.35;;;;;;;25.15;67.76;99835.44;10482245;28;20135;-69
2023/06/20 09:34:10;;;;;;;5.53;4.97;;;;;;;25.53;66.39;99847.03;10463027;28;20071;-68
2023/06/20 09:39:20;;;;;;;5.07;4.78;;;;;;;25.59;65.61;99850.97;10475385;28;20079;-69
2023/06/20 09:44:23;;;;;;;6.47;5.07;;;;;;;25.62;64.42;99851.50;10476200;28;20072;-69
2023/06/20 09:49:25;;;;;;;6.15;5.60;;;;;;;25.70;62.29;99866.06;10458798;28;20045;-68
2023/06/20 09:54:46;;;;;;;5.65;5.25;;;;;;;25.06;66.23;99857.81;10496054;28;20041;-69
2023/06/20 09:59:51;;;;;;;6.93;6.10;;;;;;;25.12;66.86;99859.09;10498710;28;20071;-68
2023/06/20 10:04:55;;;;;;;6.70;6.07;;;;;;;24.85;67.43;99849.09;10499662;28;20048;-68
2023/06/20 10:09:59;;;;;;;7.10;6.60;;;;;;;24.79;68.53;99841.56;10475349;28;20107;-69
2023/06/20 10:15:03;;;;;;;6.70;6.20;;;;;;;24.63;68.37;99826.06;10458941;28;20041;-70
2023/06/20 10:20:08;;;;;;;7.40;6.90;;;;;;;24.65;69.10;99824.06;10458800;28;20112;-68
2023/06/20 10:25:12;;;;;;;7.47;6.97;;;;;;;24.79;69.08;99836.19;10458334;28;20143;-68
2023/06/20 10:30:14;;;;;;;7.70;7.20;;;;;;;25.13;65.47;99834.72;10535159;28;20118;-69
2023/06/20 10:35:16;;;;;;;7.70;7.20;;;;;;;25.27;68.04;99821.78;10541211;28;20119;-68
2023/06/20 10:40:31;;;;;;;7.15;6.65;;;;;;;25.12;68.27;99824.97;10515523;28;20041;-69
2023/06/20 10:45:34;;;;;;;;;;;;;;;25.20;68.50;99823.41;10461421;28;20056;-69
2023/06/20 10:50:36;;;;;;;7.43;6.88;;;;;;;25.16;66.66;99817.47;10464211;28;19928;-69
2023/06/20 10:55:41;;;;;;;7.70;7.27;;;;;;;25.87;62.69;99824.91;10465999;28;20079;-69
2023/06/20 11:00:42;;;;;;;7.57;6.93;;;;;;;25.79;64.03;99816.75;10482490;22;20037;-71
2023/06/20 11:05:51;;;;;;;6.82;6.43;;;;;;;25.59;64.19;99819.53;10504450;28;20497;-71
2023/06/20 11:10:53;;;;;;;7.85;7.40;;;;;;;25.61;64.34;99813.97;10505440;28;20040;-72
2023/06/20 11:15:55;;;;;;;8.48;7.97;;;;;;;25.19;65.57;99811.78;10505036;28;20040;-71
2023/06/20 11:20:59;;;;;;;6.95;6.45;;;;;;;25.31;66.70;99802.50;10505674;28;20111;-71
2023/06/20 11:26:01;;;;;;;6.40;5.88;;;;;;;25.90;64.57;99790.44;10504452;28;20493;-70
2023/06/20 11:31:13;;;;;;;8.00;7.35;;;;;;;26.17;63.66;99781.44;10504918;28;20040;-70
2023/06/20 11:36:16;;;;;;;7.80;7.30;;;;;;;25.98;65.56;99770.81;10519867;28;20048;-70
2023/06/20 11:41:18;;;;;;;7.57;7.10;;;;;;;26.23;62.62;99768.34;10503588;28;20041;-70
2023/06/20 11:46:20;;;;;;;7.90;7.22;;;;;;;26.51;59.60;99761.84;10503327;28;20070;-70
2023/06/20 11:51:24;;;;;;;8.00;7.47;;;;;;;26.17;62.81;99770.66;10502091;28;20478;-70
2023/06/20 11:56:26;;;;;;;7.60;7.18;;;;;;;26.74;61.65;99756.81;10503866;28;20091;-71
2023/06/20 12:01:28;;;;;;;7.68;7.18;;;;;;;26.72;58.44;99758.78;10501823;28;20048;-70
2023/06/20 12:06:36;;;;;;;7.72;7.13;;;;;;;26.78;61.19;99757.31;10503310;28;20048;-70
2023/06/20 12:11:54;;;;;;;7.60;7.00;;;;;;;27.28;57.34;99754.72;10503246;28;20041;-70
2023/06/20 12:16:55;;;;;;;6.93;6.43;;;;;;;27.69;58.08;99762.94;10502490;28;20044;-70
2023/06/20 12:21:57;;;;;;;7.20;6.80;;;;;;;28.29;57.70;99759.13;10502673;28;20119;-70
2023/06/20 12:26:59;;;;;;;6.72;6.30;;;;;;;28.67;51.87;99753.03;10501889;28;20064;-70
2023/06/20 12:32:00;;;;;;;7.03;6.30;;;;;;;28.88;52.06;99757.06;10501713;28;20066;-70
2023/06/20 12:37:02;;;;;;;6.38;5.93;;;;;;;29.34;53.68;99747.25;10501686;28;20098;-71
2023/06/20 12:42:04;;;;;;;7.03;6.47;;;;;;;29.45;51.18;99750.63;10502950;28;20037;-70
2023/06/20 12:47:06;;;;;;;6.90;6.28;;;;;;;29.80;50.92;99743.84;10501344;28;20048;-70
2023/06/20 12:52:09;;;;;;;6.60;6.05;;;;;;;29.78;49.51;99746.69;10501376;28;20513;-70
2023/06/20 12:57:11;;;;;;;7.00;6.60;;;;;;;29.52;49.15;99747.00;10500788;28;20044;-70
2023/06/20 13:02:13;;;;;;;6.35;5.85;;;;;;;29.72;48.45;99733.88;10500363;28;20072;-70
2023/06/20 13:07:15;;;;;;;7.25;6.70;;;;;;;30.34;48.29;99719.38;10515526;28;20123;-70
2023/06/20 13:12:17;;;;;;;7.35;6.85;;;;;;;30.15;47.88;99716.16;10499772;28;20593;-70
2023/06/20 13:17:19;;;;;;;7.57;7.18;;;;;;;29.98;47.69;99703.72;10500049;28;20040;-70
2023/06/20 13:22:21;;;;;;;7.88;7.25;;;;;;;29.56;48.64;99698.78;10499981;28;20403;-70
2023/06/20 13:27:26;;;;;;;7.57;7.07;;;;;;;29.36;49.98;99698.38;10500076;28;20040;-70
2023/06/20 13:32:28;;;;;;;7.63;7.13;;;;;;;29.83;50.23;99690.09;10510007;28;20119;-71
2023/06/20 13:37:31;;;;;;;8.00;7.50;;;;;;;30.27;46.37;99689.41;10535208;28;20486;-71
2023/06/20 13:42:34;;;;;;;8.23;7.72;;;;;;;29.89;45.98;99683.97;10499233;28;20044;-71
2023/06/20 13:47:37;;;;;;;8.35;7.50;;;;;;;29.59;49.39;99676.75;10517278;28;20421;-72
2023/06/20 13:53:04;;;;;;;7.47;6.93;;;;;;;29.32;49.42;99670.81;10540907;28;20044;-71
2023/06/20 13:58:06;;;;;;;8.20;7.60;;;;;;;29.11;51.11;99666.00;10528409;28;20040;-70
2023/06/20 14:03:08;;;;;;;7.60;7.10;;;;;;;29.29;51.66;99670.31;10534288;28;20041;-70
2023/06/20 14:08:10;;;;;;;8.40;7.80;;;;;;;29.13;50.55;99657.69;10517685;28;20044;-70
2023/06/20 14:13:12;;;;;;;8.55;8.00;;;;;;;29.23;49.46;99643.97;10556096;28;20067;-70
2023/06/20 14:18:14;;;;;;;12.25;7.30;;;;;;;28.98;49.30;99635.13;10508444;28;20047;-70
2023/06/20 14:23:15;;;;;;;14.48;7.47;;;;;;;29.02;49.62;99634.59;10497131;28;20625;-70
2023/06/20 14:28:19;;;;;;;12.63;7.25;;;;;;;29.09;52.14;99632.88;10497464;28;20045;-70
2023/06/20 14:33:20;;;;;;;7.50;7.00;;;;;;;29.65;49.10;99630.81;10513054;28;20067;-71
2023/06/20 14:38:22;;;;;;;7.88;7.38;;;;;;;29.91;48.19;99625.00;10511534;28;20520;-69
2023/06/20 14:43:24;;;;;;;7.85;7.45;;;;;;;30.07;48.15;99624.03;10497970;28;20033;-70
2023/06/20 14:48:26;;;;;;;10.05;7.28;;;;;;;30.04;46.76;99618.97;10497667;28;20052;-70
2023/06/20 14:53:28;;;;;;;7.95;7.45;;;;;;;29.84;47.64;99612.41;10497696;28;20131;-70
2023/06/20 14:58:30;;;;;;;8.45;7.80;;;;;;;29.68;46.50;99605.25;10497893;28;20112;-72
2023/06/20 15:03:32;;;;;;;8.10;7.35;;;;;;;29.79;45.78;99604.78;10497456;28;20068;-70
2023/06/20 15:08:34;;;;;;;7.30;6.90;;;;;;;30.03;45.33;99611.03;10498052;28;20404;-71
2023/06/20 15:13:36;;;;;;;7.65;7.15;;;;;;;30.59;42.43;99606.88;10497733;28;20098;-71
2023/06/20 15:18:38;;;;;;;7.07;6.60;;;;;;;30.45;43.14;99602.28;10497185;28;20044;-71
2023/06/20 15:23:40;;;;;;;7.47;6.97;;;;;;;30.42;43.61;99586.41;10496899;28;20400;-71
2023/06/20 15:28:42;;;;;;;7.05;6.65;;;;;;;30.67;42.41;99578.78;10505774;28;20039;-71
2023/06/20 15:33:44;;;;;;;7.22;6.80;;;;;;;30.61;42.33;99564.13;10509825;28;20044;-72
2023/06/20 15:38:46;;;;;;;7.10;6.50;;;;;;;30.60;41.32;99570.59;10504062;28;20488;-71
2023/06/20 15:43:48;;;;;;;7.13;6.55;;;;;;;30.91;41.16;99566.81;10504157;28;20036;-71
2023/06/20 15:48:59;;;;;;;12.40;7.57;;;;;;;31.03;41.40;99557.09;10503868;28;20044;-71
2023/06/20 15:54:01;;;;;;;7.32;6.93;;;;;;;31.07;41.08;99557.56;10502219;28;20044;-71
2023/06/20 15:59:03;;;;;;;8.15;7.68;;;;;;;31.51;40.80;99562.00;10501890;28;20036;-69
2023/06/20 16:04:05;;;;;;;8.45;7.95;;;;;;;30.99;40.68;99546.84;10502999;28;20043;-70
2023/06/20 16:09:07;;;;;;;7.90;7.40;;;;;;;30.75;41.88;99551.59;10503188;28;20040;-70
2023/06/20 16:14:09;;;;;;;8.60;8.18;;;;;;;30.22;42.51;99553.59;10503154;28;20037;-70
2023/06/20 16:19:10;;;;;;;7.88;7.40;;;;;;;29.90;43.82;99560.19;10503374;28;20119;-70
2023/06/20 16:24:12;;;;;;;8.27;7.78;;;;;;;29.91;44.01;99543.72;10503400;28;20082;-70
2023/06/20 16:29:14;;;;;;;7.88;7.38;;;;;;;30.00;44.63;99539.06;10502930;28;20513;-70
2023/06/20 16:34:17;;;;;;;8.07;7.50;;;;;;;29.79;43.99;99538.94;10502259;28;20037;-70
2023/06/20 16:39:19;;;;;;;8.98;8.38;;;;;;;29.69;44.68;99531.09;10502302;28;20493;-70
2023/06/20 16:44:21;;;;;;;8.45;7.95;;;;;;;29.56;45.10;99539.00;10501474;28;20090;-71
2023/06/20 16:49:23;;;;;;;9.00;8.50;;;;;;;29.39;45.83;99532.84;10500281;28;20044;-71
2023/06/20 16:54:25;;;;;;;8.65;8.05;;;;;;;29.44;46.35;99532.28;10501429;28;20040;-71
2023/06/20 16:59:26;;;;;;;9.02;8.45;;;;;;;29.37;46.66;99529.50;10499611;28;20391;-71
2023/06/20 17:04:28;;;;;;;8.45;7.95;;;;;;;29.05;48.29;99528.72;10551169;22;20075;-73
2023/06/20 17:09:30;;;;;;;9.32;8.82;;;;;;;29.33;47.46;99534.41;10546711;28;20032;-72
2023/06/20 17:14:32;;;;;;;8.77;8.27;;;;;;;28.96;50.10;99526.25;10546690;28;20043;-72
2023/06/20 17:19:35;;;;;;;9.90;9.20;;;;;;;28.90;49.05;99519.66;10546313;28;20040;-72
2023/06/20 17:24:39;;;;;;;8.85;8.27;;;;;;;28.78;49.76;99523.81;10544739;28;20093;-72
2023/06/20 17:29:41;;;;;;;9.82;9.23;;;;;;;28.52;51.16;99524.97;10544357;28;20048;-75
2023/06/20 17:34:44;;;;;;;9.20;8.70;;;;;;;28.64;51.21;99526.25;10544654;28;20036;-72
2023/06/20 17:39:46;;;;;;;9.40;8.80;;;;;;;28.67;50.37;99517.75;10544569;28;20075;-71
2023/06/20 17:44:47;;;;;;;12.15;10.32;;;;;;;28.63;50.68;99511.03;10543588;28;20119;-71
2023/06/20 17:49:49;;;;;;;9.48;8.77;;;;;;;28.50;51.46;99516.16;10543800;28;20123;-73
2023/06/20 17:54:51;;;;;;;8.98;8.45;;;;;;;28.30;52.52;99507.63;10545676;28;20046;-73
2023/06/20 17:59:53;;;;;;;9.70;9.02;;;;;;;28.32;53.25;99515.53;10543313;28;20044;-72
2023/06/20 18:04:55;;;;;;;10.20;9.60;;;;;;;28.03;54.42;99500.81;10542614;28;20093;-74
2023/06/20 18:09:57;;;;;;;9.25;8.73;;;;;;;27.98;55.09;99496.91;10543620;28;20121;-72
2023/06/20 18:14:59;;;;;;;10.25;9.52;;;;;;;27.81;54.54;99488.88;10543146;28;20382;-72
2023/06/20 18:20:02;;;;;;;9.70;9.02;;;;;;;27.67;55.31;99482.31;10545749;28;20105;-72
2023/06/20 18:25:04;;;;;;;9.77;9.07;;;;;;;27.60;55.64;99477.75;10546487;28;20474;-72
2023/06/20 18:30:07;;;;;;;10.15;9.55;;;;;;;27.39;57.85;99473.72;10545165;28;20532;-72
2023/06/20 18:35:10;;;;;;;9.68;9.18;;;;;;;27.37;58.00;99474.94;10544403;28;20097;-72
2023/06/20 18:40:12;;;;;;;10.20;9.52;;;;;;;27.17;59.91;99472.56;10545348;28;20044;-72
2023/06/20 18:45:14;;;;;;;9.98;9.38;;;;;;;26.89;63.56;99466.63;10545128;28;20040;-73
2023/06/20 18:50:17;;;;;;;10.98;10.38;;;;;;;26.65;65.40;99474.66;10527721;28;20048;-72
2023/06/20 18:55:20;;;;;;;11.98;11.18;;;;;;;26.57;67.55;99467.44;10543901;28;20036;-72
2023/06/20 19:00:21;;;;;;;11.05;10.35;;;;;;;26.35;68.50;99474.25;10543142;28;20048;-72
2023/06/20 19:05:23;;;;;;;12.90;10.80;;;;;;;26.10;70.19;99478.69;10525493;28;20097;-73
2023/06/20 19:10:25;;;;;;;11.07;10.38;;;;;;;25.89;71.69;99475.53;10548060;28;20075;-74
2023/06/20 19:15:29;;;;;;;12.32;11.52;;;;;;;25.89;72.31;99475.53;10516539;28;20085;-72
2023/06/20 19:20:31;;;;;;;12.07;11.38;;;;;;;25.69;73.28;99495.59;10552029;28;20043;-73
2023/06/20 19:25:37;;;;;;;12.48;11.57;;;;;;;25.39;75.51;99495.91;10552031;28;20032;-73
2023/06/20 19:30:40;;;;;;;12.38;11.68;;;;;;;25.31;76.51;99490.44;10551172;28;20126;-72
2023/06/20 19:35:42;;;;;;;11.55;10.85;;;;;;;25.08;76.71;99495.47;10549820;28;20058;-74
2023/06/20 19:40:44;;;;;;;11.70;11.10;;;;;;;24.83;78.04;99505.09;10550821;28;20052;-74
2023/06/20 19:45:46;;;;;;;12.55;11.80;;;;;;;24.67;79.35;99505.81;10516523;28;20131;-73
2023/06/20 19:50:48;;;;;;;13.43;12.52;;;;;;;24.52;79.99;99518.06;10549261;28;20086;-73
2023/06/20 19:55:50;;;;;;;12.93;12.13;;;;;;;24.31;80.59;99504.88;10532026;28;20054;-73
2023/06/20 20:00:57;;;;;;;12.90;12.18;;;;;;;24.25;81.50;99510.81;10547085;28;20512;-73
2023/06/20 20:06:00;;;;;;;13.70;12.90;;;;;;;24.07;82.19;99515.28;10548726;28;20040;-73
2023/06/20 20:11:01;;;;;;;13.27;12.48;;;;;;;24.03;82.94;99519.25;10546648;28;20139;-72
2023/06/20 20:16:03;;;;;;;13.95;13.15;;;;;;;23.93;83.40;99521.97;10545052;28;20440;-73
2023/06/20 20:21:06;;;;;;;12.70;11.90;;;;;;;23.84;84.84;99528.22;10545076;28;20043;-72
2023/06/20 20:26:08;;;;;;;13.07;12.27;;;;;;;23.69;84.31;99524.31;10547205;28;20036;-72
2023/06/20 20:31:10;;;;;;;13.65;12.85;;;;;;;23.67;85.72;99527.13;10547976;28;20059;-73
2023/06/20 20:36:12;;;;;;;13.55;12.75;;;;;;;23.58;86.54;99514.56;10545962;28;20051;-73
2023/06/20 20:41:14;;;;;;;11.85;11.25;;;;;;;23.41;86.32;99521.50;10546726;28;20044;-72
2023/06/20 20:46:19;;;;;;;13.63;12.93;;;;;;;23.63;87.34;99531.91;10545347;28;20051;-72
2023/06/20 20:51:21;;;;;;;14.60;13.60;;;;;;;23.44;88.74;99531.94;10545697;28;20054;-72
2023/06/20 20:56:23;;;;;;;14.02;13.10;;;;;;;23.42;88.66;99534.78;10528006;28;20288;-72
2023/06/20 21:01:25;;;;;;;13.88;13.00;;;;;;;23.28;90.08;99535.19;10547962;28;20044;-72
2023/06/20 21:06:27;;;;;;;14.07;13.27;;;;;;;22.94;91.67;99526.75;10527708;28;20098;-72
2023/06/20 21:11:28;;;;;;;14.27;13.48;;;;;;;22.86;92.19;99526.56;10544870;28;20032;-72
2023/06/20 21:16:32;;;;;;;14.30;13.52;;;;;;;22.94;92.52;99521.38;10544945;28;20101;-72
2023/06/20 21:21:34;;;;;;;15.25;14.25;;;;;;;22.91;93.04;99506.41;10542839;28;20528;-72
2023/06/20 21:26:35;;;;;;;14.65;13.75;;;;;;;22.80;92.90;99508.34;10545983;28;20462;-73
2023/06/20 21:31:37;;;;;;;13.93;13.23;;;;;;;22.59;95.06;99503.13;10545425;28;20119;-73
2023/06/20 21:36:39;;;;;;;14.48;13.68;;;;;;;22.42;95.83;99504.63;10545899;28;20048;-72
2023/06/20 21:41:41;;;;;;;14.95;14.13;;;;;;;22.31;95.44;99510.06;10542248;28;20116;-73
2023/06/20 21:46:43;;;;;;;15.10;14.20;;;;;;;22.35;95.76;99493.59;10544199;28;20401;-72
2023/06/20 21:51:45;;;;;;;13.70;12.90;;;;;;;22.41;96.17;99484.19;10543600;28;20048;-73
2023/06/20 21:56:46;;;;;;;14.88;13.93;;;;;;;22.37;96.47;99486.28;10545699;28;20050;-72
2023/06/20 22:01:49;;;;;;;14.70;13.70;;;;;;;22.16;97.77;99480.16;10544445;28;20550;-73
2023/06/20 22:06:51;;;;;;;14.68;13.88;;;;;;;22.08;98.72;99490.66;10543535;28;20486;-72
2023/06/20 22:11:53;;;;;;;14.68;13.88;;;;;;;21.95;98.60;99484.69;10543097;28;20054;-72
2023/06/20 22:16:55;;;;;;;14.27;13.48;;;;;;;21.94;98.86;99488.38;10542865;28;20047;-72
2023/06/20 22:21:57;;;;;;;14.90;14.00;;;;;;;22.09;99.07;99485.19;10542898;28;20040;-72
2023/06/20 22:26:59;;;;;;;15.13;14.02;;;;;;;21.94;100.00;99491.88;10542491;28;20040;-72
2023/06/20 22:32:01;;;;;;;15.70;14.85;;;;;;;21.82;100.00;99493.78;10541807;28;20123;-72
2023/06/20 22:37:03;;;;;;;16.10;15.20;;;;;;;21.80;100.00;99502.94;10523946;28;20516;-72
2023/06/20 22:42:06;;;;;;;15.00;14.10;;;;;;;21.63;100.00;99491.88;10544646;28;20040;-73
2023/06/20 22:47:08;;;;;;;16.30;15.45;;;;;;;21.70;100.00;99489.53;10551422;28;20044;-72
2023/06/20 22:52:10;;;;;;;16.65;15.68;;;;;;;21.78;100.00;99491.53;10552556;28;20048;-72
2023/06/20 22:57:11;;;;;;;16.92;15.82;;;;;;;21.67;100.00;99490.63;10532910;28;20054;-72
2023/06/20 23:02:17;;;;;;;18.33;17.27;;;;;;;21.59;100.00;99493.13;10566981;22;20072;-68
2023/06/20 23:07:19;;;;;;;18.95;17.45;;;;;;;21.54;100.00;99497.16;10487092;28;20041;-69
2023/06/20 23:12:21;;;;;;;18.35;17.35;;;;;;;21.48;100.00;99503.06;10506446;28;20045;-69